sensor_id;sensor_type;location;lat;lon;timestamp;temperature;humidity
30304;DHT22;17112;48.636;10.152;2023-04-03T00:01:09;6.60;64.00
30304;DHT22;17112;48.636;10.152;2023-04-03T00:03:36;6.60;64.00
30304;DHT22;17112;48.636;10.152;2023-04-03T00:06:03;6.60;63.70
30304;DHT22;17112;48.636;10.152;2023-04-03T00:08:29;6.60;62.80
30304;DHT22;17112;48.636;10.152;2023-04-03T00:10:57;6.60;63.20
30304;DHT22;17112;48.636;10.152;2023-04-03T00:13:23;6.60;63.00
30304;DHT22;17112;48.636;10.152;2023-04-03T00:15:49;6.60;63.30
30304;DHT22;17112;48.636;10.152;2023-04-03T00:18:15;6.60;63.40
30304;DHT22;17112;48.636;10.152;2023-04-03T00:20:41;6.60;63.10
30304;DHT22;17112;48.636;10.152;2023-04-03T00:23:07;6.60;63.10
30304;DHT22;17112;48.636;10.152;2023-04-03T00:25:33;6.60;63.00
30304;DHT22;17112;48.636;10.152;2023-04-03T00:27:58;6.60;63.00
30304;DHT22;17112;48.636;10.152;2023-04-03T00:30:24;6.60;63.00
30304;DHT22;17112;48.636;10.152;2023-04-03T00:32:51;6.60;62.90
30304;DHT22;17112;48.636;10.152;2023-04-03T00:35:18;6.60;62.80
30304;DHT22;17112;48.636;10.152;2023-04-03T00:37:44;6.60;62.50
30304;DHT22;17112;48.636;10.152;2023-04-03T00:40:12;6.60;62.70
30304;DHT22;17112;48.636;10.152;2023-04-03T00:42:40;6.60;62.60
30304;DHT22;17112;48.636;10.152;2023-04-03T00:47:39;6.60;63.10
30304;DHT22;17112;48.636;10.152;2023-04-03T00:50:06;6.60;63.20
30304;DHT22;17112;48.636;10.152;2023-04-03T00:52:32;6.50;63.20
30304;DHT22;17112;48.636;10.152;2023-04-03T00:55:01;6.50;63.40
30304;DHT22;17112;48.636;10.152;2023-04-03T00:57:29;6.50;63.50
30304;DHT22;17112;48.636;10.152;2023-04-03T00:59:59;6.60;63.50
30304;DHT22;17112;48.636;10.152;2023-04-03T01:02:27;6.60;63.20
30304;DHT22;17112;48.636;10.152;2023-04-03T01:04:52;6.60;63.00
30304;DHT22;17112;48.636;10.152;2023-04-03T01:07:26;6.50;62.90
30304;DHT22;17112;48.636;10.152;2023-04-03T01:09:56;6.50;62.80
30304;DHT22;17112;48.636;10.152;2023-04-03T01:15:07;6.50;63.20
30304;DHT22;17112;48.636;10.152;2023-04-03T01:17:40;6.40;62.80
30304;DHT22;17112;48.636;10.152;2023-04-03T01:20:38;6.40;63.00
30304;DHT22;17112;48.636;10.152;2023-04-03T01:25:42;6.40;62.70
30304;DHT22;17112;48.636;10.152;2023-04-03T01:28:11;6.40;62.30
30304;DHT22;17112;48.636;10.152;2023-04-03T01:30:47;6.40;62.70
30304;DHT22;17112;48.636;10.152;2023-04-03T01:33:14;6.40;62.70
30304;DHT22;17112;48.636;10.152;2023-04-03T01:35:40;6.40;62.90
30304;DHT22;17112;48.636;10.152;2023-04-03T01:38:06;6.40;63.00
30304;DHT22;17112;48.636;10.152;2023-04-03T01:40:34;6.40;62.90
30304;DHT22;17112;48.636;10.152;2023-04-03T01:43:00;6.40;62.60
30304;DHT22;17112;48.636;10.152;2023-04-03T01:45:26;6.40;62.30
30304;DHT22;17112;48.636;10.152;2023-04-03T01:47:52;6.50;62.20
30304;DHT22;17112;48.636;10.152;2023-04-03T01:50:18;6.40;62.10
30304;DHT22;17112;48.636;10.152;2023-04-03T01:52:43;6.40;61.80
30304;DHT22;17112;48.636;10.152;2023-04-03T01:55:09;6.40;62.00
30304;DHT22;17112;48.636;10.152;2023-04-03T01:57:35;6.40;62.00
30304;DHT22;17112;48.636;10.152;2023-04-03T02:00:01;6.40;62.00
30304;DHT22;17112;48.636;10.152;2023-04-03T02:02:26;6.40;62.20
30304;DHT22;17112;48.636;10.152;2023-04-03T02:04:52;6.40;62.30
30304;DHT22;17112;48.636;10.152;2023-04-03T02:07:18;6.40;62.40
30304;DHT22;17112;48.636;10.152;2023-04-03T02:09:43;6.40;62.30
30304;DHT22;17112;48.636;10.152;2023-04-03T02:12:09;6.40;62.10
30304;DHT22;17112;48.636;10.152;2023-04-03T02:14:35;6.40;62.40
30304;DHT22;17112;48.636;10.152;2023-04-03T02:17:02;6.40;62.50
30304;DHT22;17112;48.636;10.152;2023-04-03T02:19:31;6.40;62.60
30304;DHT22;17112;48.636;10.152;2023-04-03T02:21:56;6.40;62.60
30304;DHT22;17112;48.636;10.152;2023-04-03T02:24:22;6.40;62.60
30304;DHT22;17112;48.636;10.152;2023-04-03T02:26:47;6.40;62.40
30304;DHT22;17112;48.636;10.152;2023-04-03T02:29:13;6.40;62.40
30304;DHT22;17112;48.636;10.152;2023-04-03T02:31:39;6.40;62.60
30304;DHT22;17112;48.636;10.152;2023-04-03T02:34:05;6.40;62.20
30304;DHT22;17112;48.636;10.152;2023-04-03T02:36:31;6.40;61.70
30304;DHT22;17112;48.636;10.152;2023-04-03T02:38:56;6.40;61.80
30304;DHT22;17112;48.636;10.152;2023-04-03T02:41:22;6.40;61.40
30304;DHT22;17112;48.636;10.152;2023-04-03T02:43:48;6.40;61.40
30304;DHT22;17112;48.636;10.152;2023-04-03T02:46:14;6.40;61.20
30304;DHT22;17112;48.636;10.152;2023-04-03T02:48:40;6.40;61.30
30304;DHT22;17112;48.636;10.152;2023-04-03T02:51:06;6.40;61.00
30304;DHT22;17112;48.636;10.152;2023-04-03T02:53:32;6.40;61.00
30304;DHT22;17112;48.636;10.152;2023-04-03T02:55:58;6.40;61.00
30304;DHT22;17112;48.636;10.152;2023-04-03T02:58:23;6.30;60.10
30304;DHT22;17112;48.636;10.152;2023-04-03T03:00:49;6.40;60.60
30304;DHT22;17112;48.636;10.152;2023-04-03T03:03:15;6.30;60.50
30304;DHT22;17112;48.636;10.152;2023-04-03T03:05:40;6.30;60.10
30304;DHT22;17112;48.636;10.152;2023-04-03T03:08:06;6.30;60.50
30304;DHT22;17112;48.636;10.152;2023-04-03T03:10:32;6.30;59.20
30304;DHT22;17112;48.636;10.152;2023-04-03T03:12:57;6.20;59.80
30304;DHT22;17112;48.636;10.152;2023-04-03T03:15:23;6.20;60.40
30304;DHT22;17112;48.636;10.152;2023-04-03T03:17:48;6.20;60.20
30304;DHT22;17112;48.636;10.152;2023-04-03T03:20:14;6.20;60.20
30304;DHT22;17112;48.636;10.152;2023-04-03T03:22:40;6.20;60.10
30304;DHT22;17112;48.636;10.152;2023-04-03T03:25:07;6.20;60.20
30304;DHT22;17112;48.636;10.152;2023-04-03T03:27:32;6.20;60.10
30304;DHT22;17112;48.636;10.152;2023-04-03T03:29:58;6.20;60.30
30304;DHT22;17112;48.636;10.152;2023-04-03T03:32:24;6.20;60.20
30304;DHT22;17112;48.636;10.152;2023-04-03T03:34:49;6.20;60.10
30304;DHT22;17112;48.636;10.152;2023-04-03T03:37:15;6.20;60.10
30304;DHT22;17112;48.636;10.152;2023-04-03T03:39:41;6.20;60.10
30304;DHT22;17112;48.636;10.152;2023-04-03T03:42:06;6.20;59.80
30304;DHT22;17112;48.636;10.152;2023-04-03T03:44:32;6.20;59.90
30304;DHT22;17112;48.636;10.152;2023-04-03T03:46:58;6.20;60.00
30304;DHT22;17112;48.636;10.152;2023-04-03T03:49:23;6.20;59.90
30304;DHT22;17112;48.636;10.152;2023-04-03T03:51:49;6.20;59.80
30304;DHT22;17112;48.636;10.152;2023-04-03T03:54:16;6.20;59.90
30304;DHT22;17112;48.636;10.152;2023-04-03T03:56:41;6.20;59.90
30304;DHT22;17112;48.636;10.152;2023-04-03T03:59:07;6.20;59.80
30304;DHT22;17112;48.636;10.152;2023-04-03T04:01:33;6.20;59.80
30304;DHT22;17112;48.636;10.152;2023-04-03T04:03:58;6.20;60.00
30304;DHT22;17112;48.636;10.152;2023-04-03T04:06:24;6.20;60.10
30304;DHT22;17112;48.636;10.152;2023-04-03T04:08:50;6.20;59.90
30304;DHT22;17112;48.636;10.152;2023-04-03T04:11:16;6.20;59.80
30304;DHT22;17112;48.636;10.152;2023-04-03T04:13:41;6.10;59.60
30304;DHT22;17112;48.636;10.152;2023-04-03T04:16:08;6.10;59.80
30304;DHT22;17112;48.636;10.152;2023-04-03T04:18:33;6.10;60.00
30304;DHT22;17112;48.636;10.152;2023-04-03T04:20:59;6.10;60.10
30304;DHT22;17112;48.636;10.152;2023-04-03T04:23:25;6.00;60.00
30304;DHT22;17112;48.636;10.152;2023-04-03T04:25:51;6.00;60.00
30304;DHT22;17112;48.636;10.152;2023-04-03T04:28:17;6.00;59.90
30304;DHT22;17112;48.636;10.152;2023-04-03T04:30:42;6.00;59.90
30304;DHT22;17112;48.636;10.152;2023-04-03T04:33:08;6.00;59.90
30304;DHT22;17112;48.636;10.152;2023-04-03T04:35:34;5.90;60.10
30304;DHT22;17112;48.636;10.152;2023-04-03T04:38:00;5.90;59.90
30304;DHT22;17112;48.636;10.152;2023-04-03T04:40:27;5.90;59.90
30304;DHT22;17112;48.636;10.152;2023-04-03T04:42:53;5.90;60.20
30304;DHT22;17112;48.636;10.152;2023-04-03T04:45:18;5.90;60.20
30304;DHT22;17112;48.636;10.152;2023-04-03T04:47:44;5.90;60.20
30304;DHT22;17112;48.636;10.152;2023-04-03T04:50:10;5.90;59.80
30304;DHT22;17112;48.636;10.152;2023-04-03T04:52:37;5.80;60.20
30304;DHT22;17112;48.636;10.152;2023-04-03T04:55:03;5.80;60.10
30304;DHT22;17112;48.636;10.152;2023-04-03T04:57:29;5.80;60.20
30304;DHT22;17112;48.636;10.152;2023-04-03T04:59:54;5.70;60.30
30304;DHT22;17112;48.636;10.152;2023-04-03T05:02:20;5.70;60.50
30304;DHT22;17112;48.636;10.152;2023-04-03T05:04:46;5.80;60.70
30304;DHT22;17112;48.636;10.152;2023-04-03T05:07:11;5.70;60.70
30304;DHT22;17112;48.636;10.152;2023-04-03T05:09:37;5.70;60.50
30304;DHT22;17112;48.636;10.152;2023-04-03T05:12:03;5.70;60.40
30304;DHT22;17112;48.636;10.152;2023-04-03T05:14:29;5.70;60.60
30304;DHT22;17112;48.636;10.152;2023-04-03T05:16:55;5.60;60.40
30304;DHT22;17112;48.636;10.152;2023-04-03T05:19:21;5.60;60.70
30304;DHT22;17112;48.636;10.152;2023-04-03T05:21:47;5.60;60.80
30304;DHT22;17112;48.636;10.152;2023-04-03T05:24:14;5.50;60.90
30304;DHT22;17112;48.636;10.152;2023-04-03T05:26:40;5.50;61.10
30304;DHT22;17112;48.636;10.152;2023-04-03T05:29:06;5.50;61.10
30304;DHT22;17112;48.636;10.152;2023-04-03T05:31:31;5.50;61.00
30304;DHT22;17112;48.636;10.152;2023-04-03T05:33:57;5.50;61.10
30304;DHT22;17112;48.636;10.152;2023-04-03T05:36:23;5.40;61.10
30304;DHT22;17112;48.636;10.152;2023-04-03T05:38:49;5.40;61.30
30304;DHT22;17112;48.636;10.152;2023-04-03T05:41:15;5.40;61.50
30304;DHT22;17112;48.636;10.152;2023-04-03T05:43:41;5.40;61.50
30304;DHT22;17112;48.636;10.152;2023-04-03T05:46:15;5.40;61.60
30304;DHT22;17112;48.636;10.152;2023-04-03T05:48:41;5.40;61.70
30304;DHT22;17112;48.636;10.152;2023-04-03T05:51:13;5.40;61.70
30304;DHT22;17112;48.636;10.152;2023-04-03T05:53:40;5.30;61.60
30304;DHT22;17112;48.636;10.152;2023-04-03T05:56:06;5.40;61.70
30304;DHT22;17112;48.636;10.152;2023-04-03T05:58:32;5.30;61.60
30304;DHT22;17112;48.636;10.152;2023-04-03T06:00:58;5.30;61.60
30304;DHT22;17112;48.636;10.152;2023-04-03T06:03:24;5.30;61.70
30304;DHT22;17112;48.636;10.152;2023-04-03T06:05:49;5.40;61.90
30304;DHT22;17112;48.636;10.152;2023-04-03T06:08:15;5.40;62.00
30304;DHT22;17112;48.636;10.152;2023-04-03T06:10:41;5.40;62.00
30304;DHT22;17112;48.636;10.152;2023-04-03T06:13:06;5.40;61.90
30304;DHT22;17112;48.636;10.152;2023-04-03T06:15:32;5.40;61.70
30304;DHT22;17112;48.636;10.152;2023-04-03T06:17:59;5.50;61.80
30304;DHT22;17112;48.636;10.152;2023-04-03T06:20:25;5.50;61.80
30304;DHT22;17112;48.636;10.152;2023-04-03T06:22:50;5.50;62.00
30304;DHT22;17112;48.636;10.152;2023-04-03T06:25:17;5.60;61.70
30304;DHT22;17112;48.636;10.152;2023-04-03T06:27:44;5.60;61.80
30304;DHT22;17112;48.636;10.152;2023-04-03T06:30:11;5.60;62.10
30304;DHT22;17112;48.636;10.152;2023-04-03T06:32:37;5.70;62.30
30304;DHT22;17112;48.636;10.152;2023-04-03T06:35:04;5.70;62.30
30304;DHT22;17112;48.636;10.152;2023-04-03T06:37:30;5.80;61.70
30304;DHT22;17112;48.636;10.152;2023-04-03T06:39:56;5.80;61.60
30304;DHT22;17112;48.636;10.152;2023-04-03T06:42:22;5.80;61.60
30304;DHT22;17112;48.636;10.152;2023-04-03T06:44:48;5.90;61.80
30304;DHT22;17112;48.636;10.152;2023-04-03T06:47:15;5.90;61.90
30304;DHT22;17112;48.636;10.152;2023-04-03T06:49:41;6.00;62.10
30304;DHT22;17112;48.636;10.152;2023-04-03T06:52:08;6.00;61.70
30304;DHT22;17112;48.636;10.152;2023-04-03T06:54:33;6.00;61.70
30304;DHT22;17112;48.636;10.152;2023-04-03T06:57:00;6.10;61.70
30304;DHT22;17112;48.636;10.152;2023-04-03T06:59:26;6.10;61.60
30304;DHT22;17112;48.636;10.152;2023-04-03T07:01:51;6.20;61.50
30304;DHT22;17112;48.636;10.152;2023-04-03T07:04:17;6.20;61.50
30304;DHT22;17112;48.636;10.152;2023-04-03T07:06:44;6.20;61.00
30304;DHT22;17112;48.636;10.152;2023-04-03T07:09:10;6.30;61.30
30304;DHT22;17112;48.636;10.152;2023-04-03T07:11:36;6.30;61.30
30304;DHT22;17112;48.636;10.152;2023-04-03T07:14:02;6.30;61.60
30304;DHT22;17112;48.636;10.152;2023-04-03T07:16:28;6.40;61.50
30304;DHT22;17112;48.636;10.152;2023-04-03T07:18:56;6.50;61.10
30304;DHT22;17112;48.636;10.152;2023-04-03T07:21:22;6.50;61.70
30304;DHT22;17112;48.636;10.152;2023-04-03T07:23:48;6.50;60.80
30304;DHT22;17112;48.636;10.152;2023-04-03T07:26:14;6.60;60.90
30304;DHT22;17112;48.636;10.152;2023-04-03T07:28:40;6.60;61.00
30304;DHT22;17112;48.636;10.152;2023-04-03T07:31:08;6.60;60.50
30304;DHT22;17112;48.636;10.152;2023-04-03T07:33:36;6.70;60.70
30304;DHT22;17112;48.636;10.152;2023-04-03T07:36:03;6.70;60.70
30304;DHT22;17112;48.636;10.152;2023-04-03T07:38:29;6.80;60.80
30304;DHT22;17112;48.636;10.152;2023-04-03T07:40:54;6.90;61.10
30304;DHT22;17112;48.636;10.152;2023-04-03T07:43:21;7.00;60.50
30304;DHT22;17112;48.636;10.152;2023-04-03T07:45:48;7.00;60.60
30304;DHT22;17112;48.636;10.152;2023-04-03T07:48:25;7.20;60.80
30304;DHT22;17112;48.636;10.152;2023-04-03T07:50:52;7.30;59.80
30304;DHT22;17112;48.636;10.152;2023-04-03T07:53:17;7.40;60.20
30304;DHT22;17112;48.636;10.152;2023-04-03T07:55:46;7.50;60.70
30304;DHT22;17112;48.636;10.152;2023-04-03T07:58:16;7.50;59.60
30304;DHT22;17112;48.636;10.152;2023-04-03T08:00:42;7.60;59.20
30304;DHT22;17112;48.636;10.152;2023-04-03T08:03:10;7.70;59.00
30304;DHT22;17112;48.636;10.152;2023-04-03T08:05:40;7.70;59.10
30304;DHT22;17112;48.636;10.152;2023-04-03T08:08:07;7.70;59.20
30304;DHT22;17112;48.636;10.152;2023-04-03T08:10:33;7.70;59.20
30304;DHT22;17112;48.636;10.152;2023-04-03T08:12:59;7.70;58.80
30304;DHT22;17112;48.636;10.152;2023-04-03T08:15:25;7.70;58.90
30304;DHT22;17112;48.636;10.152;2023-04-03T08:17:52;7.70;59.20
30304;DHT22;17112;48.636;10.152;2023-04-03T08:20:17;7.70;59.30
30304;DHT22;17112;48.636;10.152;2023-04-03T08:22:43;7.70;58.60
30304;DHT22;17112;48.636;10.152;2023-04-03T08:25:09;7.70;58.70
30304;DHT22;17112;48.636;10.152;2023-04-03T08:27:35;7.70;59.20
30304;DHT22;17112;48.636;10.152;2023-04-03T08:30:00;7.70;58.80
30304;DHT22;17112;48.636;10.152;2023-04-03T08:32:26;7.70;59.30
30304;DHT22;17112;48.636;10.152;2023-04-03T08:34:53;7.60;59.00
30304;DHT22;17112;48.636;10.152;2023-04-03T08:37:18;7.70;59.30
30304;DHT22;17112;48.636;10.152;2023-04-03T08:39:44;7.70;59.30
30304;DHT22;17112;48.636;10.152;2023-04-03T08:45:10;7.70;59.10
30304;DHT22;17112;48.636;10.152;2023-04-03T08:47:57;7.80;59.50
30304;DHT22;17112;48.636;10.152;2023-04-03T08:50:47;7.90;59.20
30304;DHT22;17112;48.636;10.152;2023-04-03T08:53:28;7.90;59.30
30304;DHT22;17112;48.636;10.152;2023-04-03T08:55:58;8.00;58.70
30304;DHT22;17112;48.636;10.152;2023-04-03T08:58:30;8.00;58.60
30304;DHT22;17112;48.636;10.152;2023-04-03T09:01:05;8.10;58.80
30304;DHT22;17112;48.636;10.152;2023-04-03T09:03:40;8.00;58.00
30304;DHT22;17112;48.636;10.152;2023-04-03T09:06:25;8.00;58.60
30304;DHT22;17112;48.636;10.152;2023-04-03T09:09:20;8.00;58.20
30304;DHT22;17112;48.636;10.152;2023-04-03T09:23:42;8.20;58.00
30304;DHT22;17112;48.636;10.152;2023-04-03T09:26:32;8.20;58.10
30304;DHT22;17112;48.636;10.152;2023-04-03T09:29:04;8.30;58.30
30304;DHT22;17112;48.636;10.152;2023-04-03T09:31:43;8.40;58.70
30304;DHT22;17112;48.636;10.152;2023-04-03T09:34:32;8.50;58.00
30304;DHT22;17112;48.636;10.152;2023-04-03T09:37:03;8.60;58.10
30304;DHT22;17112;48.636;10.152;2023-04-03T09:39:33;8.70;57.90
30304;DHT22;17112;48.636;10.152;2023-04-03T09:44:55;8.80;57.40
30304;DHT22;17112;48.636;10.152;2023-04-03T09:47:26;8.80;57.70
30304;DHT22;17112;48.636;10.152;2023-04-03T09:52:42;9.00;56.80
30304;DHT22;17112;48.636;10.152;2023-04-03T09:55:18;9.00;57.50
30304;DHT22;17112;48.636;10.152;2023-04-03T09:57:45;9.00;56.00
30304;DHT22;17112;48.636;10.152;2023-04-03T10:00:33;9.10;56.50
30304;DHT22;17112;48.636;10.152;2023-04-03T10:02:59;9.10;55.70
30304;DHT22;17112;48.636;10.152;2023-04-03T10:05:39;9.00;56.60
30304;DHT22;17112;48.636;10.152;2023-04-03T10:10:45;9.00;56.30
30304;DHT22;17112;48.636;10.152;2023-04-03T10:13:19;9.00;55.80
30304;DHT22;17112;48.636;10.152;2023-04-03T10:15:51;8.90;54.70
30304;DHT22;17112;48.636;10.152;2023-04-03T10:18:29;8.90;55.50
30304;DHT22;17112;48.636;10.152;2023-04-03T10:21:15;8.90;56.00
30304;DHT22;17112;48.636;10.152;2023-04-03T10:23:53;8.90;55.80
30304;DHT22;17112;48.636;10.152;2023-04-03T10:31:37;8.70;55.60
30304;DHT22;17112;48.636;10.152;2023-04-03T10:34:33;8.70;55.50
30304;DHT22;17112;48.636;10.152;2023-04-03T10:42:43;8.60;55.80
30304;DHT22;17112;48.636;10.152;2023-04-03T10:45:32;8.60;56.30
30304;DHT22;17112;48.636;10.152;2023-04-03T10:53:42;8.70;55.40
30304;DHT22;17112;48.636;10.152;2023-04-03T10:59:06;8.80;54.30
30304;DHT22;17112;48.636;10.152;2023-04-03T11:01:35;8.80;55.50
30304;DHT22;17112;48.636;10.152;2023-04-03T11:04:04;8.80;55.00
30304;DHT22;17112;48.636;10.152;2023-04-03T11:06:53;8.70;54.70
30304;DHT22;17112;48.636;10.152;2023-04-03T11:09:44;8.70;54.60
30304;DHT22;17112;48.636;10.152;2023-04-03T11:12:33;8.70;55.10
30304;DHT22;17112;48.636;10.152;2023-04-03T11:15:03;8.60;55.20
30304;DHT22;17112;48.636;10.152;2023-04-03T11:17:40;8.50;55.20
30304;DHT22;17112;48.636;10.152;2023-04-03T11:20:26;8.50;55.10
30304;DHT22;17112;48.636;10.152;2023-04-03T11:23:24;8.50;54.90
30304;DHT22;17112;48.636;10.152;2023-04-03T11:25:54;8.50;54.40
30304;DHT22;17112;48.636;10.152;2023-04-03T11:28:22;8.50;55.10
30304;DHT22;17112;48.636;10.152;2023-04-03T11:33:58;8.60;54.70
30304;DHT22;17112;48.636;10.152;2023-04-03T11:36:38;8.60;53.90
30304;DHT22;17112;48.636;10.152;2023-04-03T11:39:25;8.60;55.30
30304;DHT22;17112;48.636;10.152;2023-04-03T11:41:52;8.60;54.90
30304;DHT22;17112;48.636;10.152;2023-04-03T11:44:36;8.70;55.10
30304;DHT22;17112;48.636;10.152;2023-04-03T11:47:04;8.70;55.10
30304;DHT22;17112;48.636;10.152;2023-04-03T12:03:57;8.90;54.60
30304;DHT22;17112;48.636;10.152;2023-04-03T12:08:58;8.90;53.10
30304;DHT22;17112;48.636;10.152;2023-04-03T12:11:30;8.90;53.00
30304;DHT22;17112;48.636;10.152;2023-04-03T12:26:50;9.10;52.50
30304;DHT22;17112;48.636;10.152;2023-04-03T12:45:46;9.20;52.10
30304;DHT22;17112;48.636;10.152;2023-04-03T12:48:17;9.10;52.50
30304;DHT22;17112;48.636;10.152;2023-04-03T12:50:46;9.10;52.20
30304;DHT22;17112;48.636;10.152;2023-04-03T12:53:18;9.10;52.60
30304;DHT22;17112;48.636;10.152;2023-04-03T12:55:44;9.10;51.80
30304;DHT22;17112;48.636;10.152;2023-04-03T12:58:27;9.10;52.60
30304;DHT22;17112;48.636;10.152;2023-04-03T13:01:08;9.20;53.30
30304;DHT22;17112;48.636;10.152;2023-04-03T13:03:42;9.30;53.50
30304;DHT22;17112;48.636;10.152;2023-04-03T13:06:21;9.40;53.50
30304;DHT22;17112;48.636;10.152;2023-04-03T13:08:56;9.50;52.00
30304;DHT22;17112;48.636;10.152;2023-04-03T13:11:28;9.50;52.80
30304;DHT22;17112;48.636;10.152;2023-04-03T13:16:21;9.70;53.40
30304;DHT22;17112;48.636;10.152;2023-04-03T13:18:53;9.80;52.70
30304;DHT22;17112;48.636;10.152;2023-04-03T13:21:31;9.90;52.20
30304;DHT22;17112;48.636;10.152;2023-04-03T13:24:00;9.90;52.20
30304;DHT22;17112;48.636;10.152;2023-04-03T13:26:29;9.90;52.50
30304;DHT22;17112;48.636;10.152;2023-04-03T13:29:05;9.90;50.10
30304;DHT22;17112;48.636;10.152;2023-04-03T13:31:34;9.90;50.60
30304;DHT22;17112;48.636;10.152;2023-04-03T13:34:07;10.00;51.50
30304;DHT22;17112;48.636;10.152;2023-04-03T13:36:39;10.00;51.40
30304;DHT22;17112;48.636;10.152;2023-04-03T13:41:43;10.10;48.80
30304;DHT22;17112;48.636;10.152;2023-04-03T13:46:49;10.10;49.60
30304;DHT22;17112;48.636;10.152;2023-04-03T13:49:29;10.10;50.50
30304;DHT22;17112;48.636;10.152;2023-04-03T13:51:56;10.10;48.90
30304;DHT22;17112;48.636;10.152;2023-04-03T13:54:33;10.20;49.10
30304;DHT22;17112;48.636;10.152;2023-04-03T13:57:01;10.20;50.30
30304;DHT22;17112;48.636;10.152;2023-04-03T13:59:35;10.20;50.30
30304;DHT22;17112;48.636;10.152;2023-04-03T14:07:18;10.30;48.70
30304;DHT22;17112;48.636;10.152;2023-04-03T14:09:45;10.40;48.40
30304;DHT22;17112;48.636;10.152;2023-04-03T14:12:31;10.30;49.90
30304;DHT22;17112;48.636;10.152;2023-04-03T14:15:00;10.30;48.90
30304;DHT22;17112;48.636;10.152;2023-04-03T14:17:26;10.20;48.30
30304;DHT22;17112;48.636;10.152;2023-04-03T14:19:54;10.20;48.70
30304;DHT22;17112;48.636;10.152;2023-04-03T14:22:26;10.10;48.00
30304;DHT22;17112;48.636;10.152;2023-04-03T14:24:53;10.00;48.30
30304;DHT22;17112;48.636;10.152;2023-04-03T14:29:46;9.90;48.70
30304;DHT22;17112;48.636;10.152;2023-04-03T14:32:13;9.90;48.50
30304;DHT22;17112;48.636;10.152;2023-04-03T14:34:40;9.90;49.40
30304;DHT22;17112;48.636;10.152;2023-04-03T14:37:11;10.00;48.20
30304;DHT22;17112;48.636;10.152;2023-04-03T14:39:39;10.10;47.40
30304;DHT22;17112;48.636;10.152;2023-04-03T14:42:05;10.20;47.10
30304;DHT22;17112;48.636;10.152;2023-04-03T14:44:31;10.40;48.70
30304;DHT22;17112;48.636;10.152;2023-04-03T14:46:57;10.50;47.80
30304;DHT22;17112;48.636;10.152;2023-04-03T14:49:27;10.60;48.10
30304;DHT22;17112;48.636;10.152;2023-04-03T14:51:56;10.70;48.20
30304;DHT22;17112;48.636;10.152;2023-04-03T14:54:23;10.70;48.20
30304;DHT22;17112;48.636;10.152;2023-04-03T14:56:54;10.80;47.70
30304;DHT22;17112;48.636;10.152;2023-04-03T14:59:21;10.80;47.60
30304;DHT22;17112;48.636;10.152;2023-04-03T15:01:47;10.70;45.70
30304;DHT22;17112;48.636;10.152;2023-04-03T15:04:15;10.70;47.20
30304;DHT22;17112;48.636;10.152;2023-04-03T15:06:41;10.60;47.30
30304;DHT22;17112;48.636;10.152;2023-04-03T15:09:24;10.60;47.30
30304;DHT22;17112;48.636;10.152;2023-04-03T15:11:52;10.50;46.80
30304;DHT22;17112;48.636;10.152;2023-04-03T15:14:18;10.50;47.50
30304;DHT22;17112;48.636;10.152;2023-04-03T15:16:43;10.40;45.80
30304;DHT22;17112;48.636;10.152;2023-04-03T15:19:10;10.30;47.00
30304;DHT22;17112;48.636;10.152;2023-04-03T15:21:37;10.20;46.60
30304;DHT22;17112;48.636;10.152;2023-04-03T15:24:03;10.10;47.20
30304;DHT22;17112;48.636;10.152;2023-04-03T15:26:29;10.00;46.30
30304;DHT22;17112;48.636;10.152;2023-04-03T15:28:55;10.00;45.70
30304;DHT22;17112;48.636;10.152;2023-04-03T15:31:20;10.10;47.30
30304;DHT22;17112;48.636;10.152;2023-04-03T15:33:46;10.30;47.90
30304;DHT22;17112;48.636;10.152;2023-04-03T15:36:12;10.60;47.60
30304;DHT22;17112;48.636;10.152;2023-04-03T15:38:37;10.90;46.70
30304;DHT22;17112;48.636;10.152;2023-04-03T15:41:04;11.20;45.60
30304;DHT22;17112;48.636;10.152;2023-04-03T15:43:30;11.30;44.80
30304;DHT22;17112;48.636;10.152;2023-04-03T15:45:58;11.30;45.70
30304;DHT22;17112;48.636;10.152;2023-04-03T15:48:25;11.20;43.50
30304;DHT22;17112;48.636;10.152;2023-04-03T15:50:51;11.10;43.80
30304;DHT22;17112;48.636;10.152;2023-04-03T15:53:17;11.00;44.10
30304;DHT22;17112;48.636;10.152;2023-04-03T15:55:42;10.80;43.70
30304;DHT22;17112;48.636;10.152;2023-04-03T15:58:08;10.60;44.10
30304;DHT22;17112;48.636;10.152;2023-04-03T16:00:35;10.50;44.50
30304;DHT22;17112;48.636;10.152;2023-04-03T16:03:08;10.50;45.70
30304;DHT22;17112;48.636;10.152;2023-04-03T16:05:37;10.50;45.10
30304;DHT22;17112;48.636;10.152;2023-04-03T16:08:04;10.50;46.60
30304;DHT22;17112;48.636;10.152;2023-04-03T16:10:31;10.60;46.90
30304;DHT22;17112;48.636;10.152;2023-04-03T16:12:57;10.80;45.30
30304;DHT22;17112;48.636;10.152;2023-04-03T16:15:24;11.00;45.50
30304;DHT22;17112;48.636;10.152;2023-04-03T16:17:50;11.10;44.50
30304;DHT22;17112;48.636;10.152;2023-04-03T16:20:16;11.20;44.10
30304;DHT22;17112;48.636;10.152;2023-04-03T16:22:43;11.10;43.70
30304;DHT22;17112;48.636;10.152;2023-04-03T16:25:10;11.00;44.10
30304;DHT22;17112;48.636;10.152;2023-04-03T16:27:37;11.00;44.60
30304;DHT22;17112;48.636;10.152;2023-04-03T16:30:03;11.00;45.40
30304;DHT22;17112;48.636;10.152;2023-04-03T16:32:30;11.20;45.10
30304;DHT22;17112;48.636;10.152;2023-04-03T16:34:57;11.30;43.60
30304;DHT22;17112;48.636;10.152;2023-04-03T16:37:23;11.30;43.40
30304;DHT22;17112;48.636;10.152;2023-04-03T16:39:49;11.30;42.70
30304;DHT22;17112;48.636;10.152;2023-04-03T16:42:14;11.20;43.60
30304;DHT22;17112;48.636;10.152;2023-04-03T16:44:41;11.10;43.10
30304;DHT22;17112;48.636;10.152;2023-04-03T16:47:07;11.00;42.90
30304;DHT22;17112;48.636;10.152;2023-04-03T16:49:34;10.80;42.10
30304;DHT22;17112;48.636;10.152;2023-04-03T16:52:01;10.70;43.10
30304;DHT22;17112;48.636;10.152;2023-04-03T16:54:28;10.50;43.50
30304;DHT22;17112;48.636;10.152;2023-04-03T16:56:53;10.40;43.50
30304;DHT22;17112;48.636;10.152;2023-04-03T16:59:19;10.30;42.80
30304;DHT22;17112;48.636;10.152;2023-04-03T17:01:45;10.20;43.60
30304;DHT22;17112;48.636;10.152;2023-04-03T17:04:11;10.10;44.10
30304;DHT22;17112;48.636;10.152;2023-04-03T17:06:38;10.10;44.50
30304;DHT22;17112;48.636;10.152;2023-04-03T17:09:04;10.00;44.50
30304;DHT22;17112;48.636;10.152;2023-04-03T17:11:31;9.90;44.60
30304;DHT22;17112;48.636;10.152;2023-04-03T17:13:56;9.90;44.40
30304;DHT22;17112;48.636;10.152;2023-04-03T17:16:23;9.80;44.70
30304;DHT22;17112;48.636;10.152;2023-04-03T17:18:49;9.80;44.90
30304;DHT22;17112;48.636;10.152;2023-04-03T17:21:16;9.70;45.00
30304;DHT22;17112;48.636;10.152;2023-04-03T17:23:44;9.70;45.10
30304;DHT22;17112;48.636;10.152;2023-04-03T17:26:10;9.60;45.40
30304;DHT22;17112;48.636;10.152;2023-04-03T17:28:36;9.60;45.40
30304;DHT22;17112;48.636;10.152;2023-04-03T17:31:03;9.50;45.60